createdAt,value
2019-01-11T00:01:34.846Z,1.15
2019-01-11T00:04:03.751Z,1.24
2019-01-11T00:06:32.365Z,1.25
2019-01-11T00:09:00.966Z,1.26
2019-01-11T00:11:29.681Z,1.29
2019-01-11T00:13:58.201Z,1.17
2019-01-11T00:16:26.849Z,1.07
2019-01-11T00:18:55.441Z,1.13
2019-01-11T00:21:24.065Z,1.16
2019-01-11T00:23:52.622Z,1.06
2019-01-11T00:26:21.255Z,1.22
2019-01-11T00:28:49.815Z,1.16
2019-01-11T00:31:18.434Z,1.07
2019-01-11T00:33:46.990Z,1.00
2019-01-11T00:36:15.573Z,1.12
2019-01-11T00:38:44.124Z,1.05
2019-01-11T00:41:12.755Z,1.01
2019-01-11T00:43:41.346Z,0.95
2019-01-11T00:46:10.279Z,0.86
2019-01-11T00:48:39.171Z,1.07
2019-01-11T00:51:07.714Z,1.05
2019-01-11T00:53:36.210Z,0.84
2019-01-11T00:56:05.279Z,1.06
2019-01-11T00:58:33.787Z,1.20
2019-01-11T01:01:02.395Z,1.12
2019-01-11T01:03:30.935Z,1.04
2019-01-11T01:05:59.977Z,1.00
2019-01-11T01:08:30.583Z,1.05
2019-01-11T01:10:59.786Z,1.16
2019-01-11T01:13:29.419Z,0.90
2019-01-11T01:15:57.971Z,0.99
2019-01-11T01:18:26.996Z,0.87
2019-01-11T01:20:55.877Z,1.09
2019-01-11T01:23:25.580Z,0.91
2019-01-11T01:25:54.123Z,1.12
2019-01-11T01:28:22.670Z,1.21
2019-01-11T01:30:51.185Z,1.20
2019-01-11T01:33:19.772Z,1.28
2019-01-11T01:35:48.293Z,1.02
2019-01-11T01:38:16.885Z,0.80
2019-01-11T01:40:45.410Z,1.00
2019-01-11T01:43:13.990Z,0.97
2019-01-11T01:45:42.590Z,0.91
2019-01-11T01:48:11.522Z,0.91
2019-01-11T01:50:40.043Z,1.02
2019-01-11T01:53:09.319Z,1.00
2019-01-11T01:55:37.939Z,0.89
2019-01-11T01:58:06.898Z,0.93
2019-01-11T02:00:35.510Z,0.87
2019-01-11T02:03:04.168Z,0.84
2019-01-11T02:05:32.723Z,1.09
2019-01-11T02:08:01.272Z,0.88
2019-01-11T02:10:29.903Z,0.93
2019-01-11T02:12:58.534Z,1.00
2019-01-11T02:15:27.083Z,1.10
2019-01-11T02:17:56.054Z,0.95
2019-01-11T02:20:24.677Z,1.15
2019-01-11T02:22:53.308Z,1.07
2019-01-11T02:25:21.845Z,1.06
2019-01-11T02:27:50.393Z,1.18
2019-01-11T02:30:20.971Z,1.19
2019-01-11T02:32:53.040Z,1.13
2019-01-11T02:35:19.860Z,1.10
2019-01-11T02:37:48.511Z,1.05
2019-01-11T02:40:17.123Z,0.92
2019-01-11T02:42:45.779Z,0.99
2019-01-11T02:45:17.366Z,1.06
2019-01-11T02:47:45.959Z,1.02
2019-01-11T02:50:15.364Z,1.12
2019-01-11T02:52:44.384Z,1.10
2019-01-11T02:55:12.925Z,1.01
2019-01-11T02:57:41.590Z,0.95
2019-01-11T03:00:16.268Z,0.80
2019-01-11T03:02:45.051Z,0.94
2019-01-11T03:05:14.520Z,0.97
2019-01-11T03:07:43.671Z,0.95
2019-01-11T03:10:15.228Z,0.99
2019-01-11T03:12:43.815Z,1.04
2019-01-11T03:15:13.295Z,1.14
2019-01-11T03:17:42.050Z,1.02
2019-01-11T03:20:13.385Z,1.04
2019-01-11T03:22:42.366Z,1.15
2019-01-11T03:25:13.333Z,0.94
2019-01-11T03:27:42.675Z,0.97
2019-01-11T03:30:14.134Z,1.12
2019-01-11T03:32:42.778Z,0.97
2019-01-11T03:35:18.924Z,0.95
2019-01-11T03:37:49.081Z,1.03
2019-01-11T03:40:19.941Z,0.98
2019-01-11T03:42:48.600Z,0.99
2019-01-11T03:45:19.775Z,1.14
2019-01-11T03:47:48.436Z,1.01
2019-01-11T03:50:18.780Z,1.01
2019-01-11T03:52:47.439Z,1.05
2019-01-11T03:55:17.016Z,1.11
2019-01-11T03:57:45.670Z,0.87
2019-01-11T04:00:22.344Z,0.74
2019-01-11T04:02:50.982Z,0.85
2019-01-11T04:05:20.234Z,0.94
2019-01-11T04:07:48.837Z,0.96
2019-01-11T04:10:19.502Z,0.90
2019-01-11T04:12:48.223Z,0.90
2019-01-11T04:15:18.576Z,0.92
2019-01-11T04:17:49.259Z,0.89
2019-01-11T04:20:19.404Z,0.78
2019-01-11T04:22:50.149Z,0.88
2019-01-11T04:25:20.320Z,0.84
2019-01-11T04:27:50.497Z,1.00
2019-01-11T04:30:19.743Z,0.89
2019-01-11T04:32:48.779Z,0.84
2019-01-11T04:35:17.843Z,0.80
2019-01-11T04:37:46.526Z,0.79
2019-01-11T04:40:15.964Z,0.79
2019-01-11T04:42:44.530Z,0.72
2019-01-11T04:45:13.113Z,0.73
2019-01-11T04:47:42.131Z,0.68
2019-01-11T04:50:14.078Z,0.51
2019-01-11T04:52:42.804Z,0.57
2019-01-11T04:55:11.515Z,0.62
2019-01-11T04:57:40.215Z,0.77
2019-01-11T05:00:18.144Z,0.70
2019-01-11T05:02:46.776Z,0.67
2019-01-11T05:05:15.691Z,0.91
2019-01-11T05:07:44.328Z,0.91
2019-01-11T05:10:15.681Z,0.65
2019-01-11T05:12:44.253Z,0.67
2019-01-11T05:15:12.879Z,0.67
2019-01-11T05:17:41.613Z,0.75
2019-01-11T05:20:16.560Z,0.63
2019-01-11T05:22:42.643Z,0.59
2019-01-11T05:25:11.190Z,0.66
2019-01-11T05:27:39.798Z,0.66
2019-01-11T05:30:11.547Z,0.71
2019-01-11T05:32:40.362Z,0.68
2019-01-11T05:35:09.075Z,0.61
2019-01-11T05:37:37.824Z,0.72
2019-01-11T05:40:09.543Z,0.65
2019-01-11T05:42:38.124Z,0.84
2019-01-11T05:45:07.462Z,0.97
2019-01-11T05:47:36.074Z,0.80
2019-01-11T05:50:11.254Z,0.83
2019-01-11T05:52:39.935Z,0.75
2019-01-11T05:55:10.872Z,1.01
2019-01-11T05:57:41.098Z,0.89
2019-01-11T06:00:11.098Z,0.74
2019-01-11T06:02:39.742Z,0.80
2019-01-11T06:05:09.812Z,0.71
2019-01-11T06:07:40.171Z,0.74
2019-01-11T06:10:11.829Z,0.96
2019-01-11T06:12:40.615Z,0.89
2019-01-11T06:15:09.288Z,0.92
2019-01-11T06:17:38.017Z,0.89
2019-01-11T06:20:09.740Z,0.91
2019-01-11T06:22:38.312Z,0.83
2019-01-11T06:25:06.999Z,0.84
2019-01-11T06:27:35.739Z,0.74
2019-01-11T06:30:07.719Z,0.72
2019-01-11T06:32:36.687Z,0.76
2019-01-11T06:35:06.700Z,0.83
2019-01-11T06:37:35.295Z,0.73
2019-01-11T06:40:06.321Z,0.79
2019-01-11T06:42:35.589Z,0.76
2019-01-11T06:45:06.917Z,0.87
2019-01-11T06:47:36.524Z,0.81
2019-01-11T06:50:14.121Z,0.85
2019-01-11T06:52:42.758Z,0.71
2019-01-11T06:55:12.057Z,0.76
2019-01-11T06:57:40.746Z,0.85
2019-01-11T07:00:12.522Z,0.80
2019-01-11T07:02:42.215Z,0.84
2019-01-11T07:05:11.910Z,0.79
2019-01-11T07:07:40.927Z,0.69
2019-01-11T07:10:21.150Z,0.79
2019-01-11T07:12:49.795Z,0.93
2019-01-11T07:15:18.497Z,0.83
2019-01-11T07:17:47.068Z,0.87
2019-01-11T07:20:15.989Z,0.82
2019-01-11T07:22:44.683Z,0.81
2019-01-11T07:25:15.149Z,0.83
2019-01-11T07:28:00.499Z,0.82
2019-01-11T07:30:30.834Z,0.82
2019-01-11T07:32:59.444Z,0.81
2019-01-11T07:35:29.707Z,0.90
2019-01-11T07:37:58.260Z,1.03
2019-01-11T07:40:26.828Z,0.93
2019-01-11T07:42:55.350Z,0.96
2019-01-11T07:45:24.538Z,0.98
2019-01-11T07:47:53.580Z,0.98
2019-01-11T07:50:22.254Z,0.89
2019-01-11T07:52:50.842Z,0.97
2019-01-11T07:55:19.512Z,0.92
2019-01-11T07:57:48.150Z,1.08
2019-01-11T08:00:16.903Z,0.95
2019-01-11T08:02:46.138Z,1.05
2019-01-11T08:05:14.781Z,0.94
2019-01-11T08:07:43.361Z,1.02
2019-01-11T08:10:13.142Z,1.09
2019-01-11T08:12:42.347Z,0.95
2019-01-11T08:15:18.494Z,1.02
2019-01-11T08:17:47.108Z,1.04
2019-01-11T08:20:16.157Z,1.06
2019-01-11T08:22:44.868Z,1.15
2019-01-11T08:25:15.259Z,1.11
2019-01-11T08:27:45.151Z,1.02
2019-01-11T08:30:17.165Z,0.93
2019-01-11T08:32:46.155Z,1.08
2019-01-11T08:35:15.673Z,1.21
2019-01-11T08:37:45.524Z,1.13
2019-01-11T08:40:14.627Z,1.10
2019-01-11T08:42:43.284Z,1.30
2019-01-11T08:45:15.030Z,1.19
2019-01-11T08:47:43.576Z,1.25
2019-01-11T08:50:18.519Z,1.30
2019-01-11T08:52:47.280Z,1.26
2019-01-11T08:55:16.387Z,1.27
2019-01-11T08:57:44.988Z,1.23
2019-01-11T09:00:15.673Z,1.24
2019-01-11T09:02:44.423Z,1.21
2019-01-11T09:05:13.148Z,1.43
2019-01-11T09:07:42.537Z,1.31
2019-01-11T09:10:22.669Z,1.42
2019-01-11T09:12:48.857Z,1.42
2019-01-11T09:15:17.609Z,1.35
2019-01-11T09:17:50.836Z,1.37
2019-01-11T09:20:19.650Z,1.30
2019-01-11T09:22:48.694Z,1.36
2019-01-11T09:25:17.326Z,1.40
2019-01-11T09:27:45.863Z,1.39
2019-01-11T09:30:14.446Z,1.21
2019-01-11T09:32:44.191Z,1.26
2019-01-11T09:35:12.855Z,1.41
2019-01-11T09:37:42.384Z,1.28
2019-01-11T09:40:12.839Z,1.29
2019-01-11T09:42:41.407Z,1.34
2019-01-11T09:45:10.071Z,1.45
2019-01-11T09:47:39.026Z,1.48
2019-01-11T09:50:09.720Z,1.63
2019-01-11T09:52:38.250Z,1.55
2019-01-11T09:55:08.118Z,1.49
2019-01-11T09:57:37.157Z,1.44
2019-01-11T10:00:21.525Z,1.40
2019-01-11T10:02:53.125Z,1.52
2019-01-11T10:05:21.698Z,1.54
2019-01-11T10:07:50.514Z,1.77
2019-01-11T10:10:19.540Z,1.77
2019-01-11T10:12:49.027Z,1.70
2019-01-11T10:15:17.754Z,1.59
2019-01-11T10:17:48.366Z,1.58
2019-01-11T10:20:18.322Z,1.64
2019-01-11T10:22:47.104Z,1.67
2019-01-11T10:25:15.806Z,1.76
2019-01-11T10:27:44.377Z,1.83
2019-01-11T10:30:15.896Z,1.83
2019-01-11T10:32:45.380Z,1.79
2019-01-11T10:35:14.360Z,1.81
2019-01-11T10:37:43.212Z,1.96
2019-01-11T10:40:16.837Z,1.97
2019-01-11T10:42:45.511Z,2.09
2019-01-11T10:45:19.305Z,2.05
2019-01-11T10:47:48.060Z,1.92
2019-01-11T10:50:17.730Z,2.01
2019-01-11T10:52:46.432Z,1.84
2019-01-11T10:55:16.702Z,2.10
2019-01-11T10:57:46.698Z,2.08
2019-01-11T11:00:23.872Z,2.12
2019-01-11T11:02:53.231Z,2.12
2019-01-11T11:05:23.040Z,2.05
2019-01-11T11:07:51.734Z,2.12
2019-01-11T11:10:20.373Z,2.27
2019-01-11T11:12:49.539Z,2.15
2019-01-11T11:15:18.862Z,2.10
2019-01-11T11:17:47.948Z,2.07
2019-01-11T11:20:18.220Z,2.25
2019-01-11T11:22:47.850Z,2.27
2019-01-11T11:25:19.578Z,2.36
2019-01-11T11:27:48.549Z,2.47
2019-01-11T11:30:19.035Z,2.37
2019-01-11T11:32:52.540Z,2.38
2019-01-11T11:35:21.612Z,2.39
2019-01-11T11:37:50.157Z,2.49
2019-01-11T11:40:19.280Z,2.72
2019-01-11T11:42:49.308Z,2.69
2019-01-11T11:45:19.037Z,2.60
2019-01-11T11:47:47.871Z,2.49
2019-01-11T11:50:16.752Z,2.55
2019-01-11T11:52:45.365Z,2.78
2019-01-11T11:55:13.988Z,2.82
2019-01-11T11:57:42.704Z,2.89
2019-01-11T12:00:20.584Z,2.74
2019-01-11T12:02:49.286Z,2.97
2019-01-11T12:05:17.913Z,2.84
2019-01-11T12:07:46.782Z,2.82
2019-01-11T12:10:16.270Z,2.87
2019-01-11T12:12:44.899Z,2.89
2019-01-11T12:15:14.989Z,2.82
2019-01-11T12:17:43.619Z,2.87
2019-01-11T12:20:24.561Z,2.82
2019-01-11T12:22:53.420Z,2.83
2019-01-11T12:25:22.413Z,2.97
2019-01-11T12:27:51.792Z,3.02
2019-01-11T12:30:20.422Z,3.01
2019-01-11T12:32:49.014Z,3.12
2019-01-11T12:35:18.155Z,3.13
2019-01-11T12:37:47.043Z,3.16
2019-01-11T12:40:16.100Z,3.13
2019-01-11T12:42:44.868Z,3.15
2019-01-11T12:45:15.414Z,3.16
2019-01-11T12:47:44.205Z,3.28
2019-01-11T12:50:21.203Z,3.25
2019-01-11T12:52:50.237Z,3.26
2019-01-11T12:55:19.559Z,3.37
2019-01-11T12:57:48.597Z,3.41
2019-01-11T13:00:18.749Z,3.29
2019-01-11T13:02:48.464Z,3.37
2019-01-11T13:05:19.562Z,3.39
2019-01-11T13:07:48.378Z,3.53
2019-01-11T13:10:19.103Z,3.57
2019-01-11T13:12:47.916Z,3.68
2019-01-11T13:15:18.263Z,3.64
2019-01-11T13:17:47.034Z,3.60
2019-01-11T13:20:18.870Z,3.61
2019-01-11T13:22:48.163Z,3.75
2019-01-11T13:25:16.976Z,3.85
2019-01-11T13:27:46.193Z,3.75
2019-01-11T13:30:16.963Z,3.79
2019-01-11T13:32:46.343Z,3.79
2019-01-11T13:35:15.831Z,3.89
2019-01-11T13:37:44.699Z,3.93
2019-01-11T13:40:19.987Z,3.86
2019-01-11T13:42:49.320Z,3.97
2019-01-11T13:45:18.140Z,4.02
2019-01-11T13:47:47.064Z,4.08
2019-01-11T13:50:35.936Z,4.04
2019-01-11T13:53:05.884Z,4.11
2019-01-11T13:55:35.700Z,4.08
2019-01-11T13:58:04.841Z,4.06
2019-01-11T14:00:34.216Z,4.19
2019-01-11T14:03:05.257Z,4.22
2019-01-11T14:05:33.892Z,4.28
2019-01-11T14:08:02.664Z,4.28
2019-01-11T14:10:31.705Z,4.20
2019-01-11T14:13:00.673Z,4.19
2019-01-11T14:15:29.399Z,4.39
2019-01-11T14:18:00.471Z,4.32
2019-01-11T14:20:32.696Z,4.28
2019-01-11T14:23:01.477Z,4.28
2019-01-11T14:25:30.414Z,4.31
2019-01-11T14:28:01.295Z,4.34
2019-01-11T14:30:31.234Z,4.33
2019-01-11T14:33:00.021Z,4.35
2019-01-11T14:35:28.643Z,4.45
2019-01-11T14:37:58.197Z,4.48
2019-01-11T14:40:27.401Z,4.44
2019-01-11T14:42:56.264Z,4.49
2019-01-11T14:45:25.192Z,4.52
2019-01-11T14:47:56.404Z,4.47
2019-01-11T14:50:25.592Z,4.55
2019-01-11T14:52:55.351Z,4.56
2019-01-11T14:55:24.395Z,4.45
2019-01-11T14:57:53.175Z,4.52
2019-01-11T15:00:24.652Z,4.67
2019-01-11T15:02:55.592Z,4.69
2019-01-11T15:05:29.597Z,4.65
2019-01-11T15:07:59.982Z,4.66
2019-01-11T15:10:29.222Z,4.68
2019-01-11T15:13:02.706Z,4.79
2019-01-11T15:15:34.503Z,4.79
2019-01-11T15:18:07.559Z,4.67
2019-01-11T15:20:39.016Z,4.85
2019-01-11T15:23:13.569Z,4.93
2019-01-11T15:25:42.139Z,4.88
2019-01-11T15:28:12.754Z,4.89
2019-01-11T15:30:42.535Z,4.97
2019-01-11T15:33:13.956Z,4.89
2019-01-11T15:35:44.786Z,4.97
2019-01-11T15:38:14.329Z,5.02
2019-01-11T15:40:43.372Z,5.03
2019-01-11T15:43:14.368Z,5.04
2019-01-11T15:45:45.370Z,5.00
2019-01-11T15:48:18.896Z,5.18
2019-01-11T15:50:53.981Z,5.03
2019-01-11T15:53:24.301Z,5.09
2019-01-11T15:55:54.145Z,5.06
2019-01-11T15:58:25.017Z,5.12
2019-01-11T16:00:56.327Z,4.98
2019-01-11T16:03:27.873Z,5.06
2019-01-11T16:06:22.138Z,5.20
2019-01-11T16:09:04.945Z,5.10
2019-01-11T16:11:51.649Z,5.23
2019-01-11T16:14:59.761Z,5.25
2019-01-11T16:17:33.135Z,5.26
2019-01-11T16:20:12.205Z,5.30
2019-01-11T16:22:47.254Z,5.31
2019-01-11T16:25:24.383Z,5.28
2019-01-11T16:27:56.143Z,5.41
2019-01-11T16:30:26.980Z,5.39
2019-01-11T16:32:58.037Z,5.38
2019-01-11T16:35:28.772Z,5.40
2019-01-11T16:38:04.211Z,5.44
2019-01-11T16:40:39.817Z,5.32
2019-01-11T16:43:14.115Z,5.45
2019-01-11T16:45:49.680Z,5.51
2019-01-11T16:48:23.085Z,5.55
2019-01-11T16:50:52.952Z,5.44
2019-01-11T16:53:23.035Z,5.57
2019-01-11T16:55:53.796Z,5.55
2019-01-11T16:58:25.958Z,5.65
2019-01-11T17:00:55.777Z,5.68
2019-01-11T17:03:30.187Z,5.68
2019-01-11T17:06:03.467Z,5.60
2019-01-11T17:08:33.423Z,5.67
2019-01-11T17:11:02.258Z,5.65
2019-01-11T17:13:32.435Z,5.70
2019-01-11T17:16:01.592Z,5.71
2019-01-11T17:18:30.824Z,5.75
2019-01-11T17:21:06.748Z,5.73
2019-01-11T17:23:37.659Z,5.66
2019-01-11T17:26:06.957Z,5.72
2019-01-11T17:28:36.623Z,5.82
2019-01-11T17:31:06.388Z,5.79
2019-01-11T17:33:35.815Z,5.86
2019-01-11T17:36:05.021Z,5.86
2019-01-11T17:38:34.431Z,5.73
2019-01-11T17:41:05.480Z,5.88
2019-01-11T17:43:35.121Z,5.95
2019-01-11T17:46:04.859Z,5.79
2019-01-11T17:48:33.934Z,5.90
2019-01-11T17:51:03.439Z,5.82
2019-01-11T17:53:33.102Z,5.91
2019-01-11T17:56:02.478Z,5.91
2019-01-11T17:58:34.559Z,5.95
2019-01-11T18:01:04.711Z,5.92
2019-01-11T18:03:33.464Z,5.92
2019-01-11T18:06:21.282Z,5.89
2019-01-11T18:08:50.862Z,5.92
2019-01-11T18:11:19.701Z,5.97
2019-01-11T18:13:48.672Z,5.95
2019-01-11T18:16:18.095Z,6.06
2019-01-11T18:18:48.042Z,6.08
2019-01-11T18:21:19.281Z,6.12
2019-01-11T18:23:48.523Z,6.13
2019-01-11T18:26:17.405Z,6.07
2019-01-11T18:28:46.684Z,6.08
2019-01-11T18:31:16.647Z,6.04
2019-01-11T18:33:46.512Z,6.06
2019-01-11T18:36:15.796Z,6.04
2019-01-11T18:38:45.672Z,6.10
2019-01-11T18:41:17.235Z,6.02
2019-01-11T18:43:49.759Z,5.99
2019-01-11T18:46:20.913Z,6.07
2019-01-11T18:48:50.253Z,6.00
2019-01-11T18:51:20.105Z,5.92
2019-01-11T18:53:49.440Z,5.92
2019-01-11T18:56:23.345Z,6.07
2019-01-11T18:58:53.636Z,6.12
2019-01-11T19:01:24.549Z,6.15
2019-01-11T19:03:53.916Z,6.08
2019-01-11T19:06:23.101Z,6.01
2019-01-11T19:08:52.923Z,6.02
2019-01-11T19:11:23.660Z,6.06
2019-01-11T19:13:55.938Z,6.04
2019-01-11T19:16:26.326Z,5.99
2019-01-11T19:18:57.676Z,6.03
2019-01-11T19:21:31.028Z,6.04
2019-01-11T19:24:00.141Z,5.90
2019-01-11T19:26:29.691Z,5.88
2019-01-11T19:29:00.184Z,6.04
2019-01-11T19:31:33.189Z,6.13
2019-01-11T19:34:03.134Z,5.99
2019-01-11T19:36:39.080Z,6.00
2019-01-11T19:39:08.894Z,5.99
2019-01-11T19:41:39.290Z,6.02
2019-01-11T19:44:08.211Z,5.94
2019-01-11T19:46:36.925Z,5.96
2019-01-11T19:49:05.638Z,6.03
2019-01-11T19:51:35.090Z,6.04
2019-01-11T19:54:04.239Z,5.88
2019-01-11T19:56:33.463Z,6.00
2019-01-11T19:59:03.245Z,6.08
2019-01-11T20:01:34.451Z,6.05
2019-01-11T20:04:04.192Z,6.02
2019-01-11T20:06:33.340Z,5.97
2019-01-11T20:09:02.144Z,5.88
2019-01-11T20:11:33.269Z,5.99
2019-01-11T20:14:03.257Z,5.90
2019-01-11T20:16:33.900Z,5.91
2019-01-11T20:19:05.545Z,5.82
2019-01-11T20:21:36.239Z,5.82
2019-01-11T20:24:08.240Z,5.85
2019-01-11T20:26:38.354Z,5.92
2019-01-11T20:29:08.630Z,5.97
2019-01-11T20:31:40.031Z,5.89
2019-01-11T20:34:09.969Z,5.86
2019-01-11T20:36:47.047Z,5.89
2019-01-11T20:39:16.142Z,5.87
2019-01-11T20:41:45.290Z,5.87
2019-01-11T20:44:15.888Z,5.85
2019-01-11T20:46:45.112Z,5.82
2019-01-11T20:49:14.560Z,5.80
2019-01-11T20:51:46.420Z,5.92
2019-01-11T20:54:15.965Z,5.87
2019-01-11T20:56:45.609Z,5.88
2019-01-11T20:59:15.656Z,5.86
2019-01-11T21:01:46.070Z,5.82
2019-01-11T21:04:15.990Z,5.80
2019-01-11T21:06:46.272Z,5.84
2019-01-11T21:09:14.918Z,5.76
2019-01-11T21:11:45.171Z,5.84
2019-01-11T21:14:13.955Z,5.76
2019-01-11T21:16:43.538Z,5.75
2019-01-11T21:19:13.687Z,5.76
2019-01-11T21:21:43.962Z,5.79
2019-01-11T21:24:12.988Z,5.82
2019-01-11T21:26:42.027Z,5.75
2019-01-11T21:29:11.863Z,5.82
2019-01-11T21:31:40.773Z,5.78
2019-01-11T21:34:10.659Z,5.85
2019-01-11T21:36:40.405Z,5.85
2019-01-11T21:39:09.528Z,5.81
2019-01-11T21:41:38.897Z,5.82
2019-01-11T21:44:08.198Z,5.79
2019-01-11T21:46:37.335Z,5.75
2019-01-11T21:49:06.817Z,5.76
2019-01-11T21:51:36.205Z,5.71
2019-01-11T21:54:07.063Z,5.67
2019-01-11T21:56:37.635Z,5.74
2019-01-11T21:59:08.627Z,5.72
2019-01-11T22:01:39.460Z,5.74
2019-01-11T22:04:08.506Z,5.82
2019-01-11T22:06:38.374Z,5.78
2019-01-11T22:09:09.430Z,5.79
2019-01-11T22:11:38.230Z,5.80
2019-01-11T22:14:09.772Z,5.80
2019-01-11T22:16:38.695Z,5.80
2019-01-11T22:19:07.509Z,5.82
2019-01-11T22:21:37.294Z,5.88
2019-01-11T22:24:06.492Z,5.87
2019-01-11T22:26:35.213Z,5.77
2019-01-11T22:29:08.694Z,5.62
2019-01-11T22:31:37.510Z,5.74
2019-01-11T22:34:06.294Z,5.77
2019-01-11T22:36:35.225Z,5.84
2019-01-11T22:39:05.615Z,5.75
2019-01-11T22:41:34.468Z,5.83
2019-01-11T22:44:03.288Z,5.81
2019-01-11T22:46:32.754Z,5.78
2019-01-11T22:49:01.494Z,5.75
2019-01-11T22:51:30.810Z,5.73
2019-01-11T22:53:59.821Z,5.73
2019-01-11T22:56:29.341Z,5.65
2019-01-11T22:58:58.554Z,5.68
2019-01-11T23:01:30.542Z,5.70
2019-01-11T23:04:00.313Z,5.76
2019-01-11T23:06:37.339Z,5.77
2019-01-11T23:09:09.826Z,5.77
2019-01-11T23:11:56.765Z,5.69
2019-01-11T23:14:25.372Z,5.65
2019-01-11T23:16:57.085Z,5.73
2019-01-11T23:19:25.837Z,5.77
2019-01-11T23:21:55.115Z,5.73
2019-01-11T23:24:23.685Z,5.73
2019-01-11T23:26:52.310Z,5.62
2019-01-11T23:29:21.353Z,5.70
2019-01-11T23:31:50.386Z,5.58
2019-01-11T23:34:19.129Z,5.67
2019-01-11T23:36:48.424Z,5.62
2019-01-11T23:39:17.110Z,5.68
2019-01-11T23:41:45.834Z,5.64
2019-01-11T23:44:14.486Z,5.65
2019-01-11T23:46:43.093Z,5.66
2019-01-11T23:49:11.671Z,5.51
2019-01-11T23:51:40.396Z,5.65
2019-01-11T23:54:09.090Z,5.64
2019-01-11T23:56:37.992Z,5.58
2019-01-11T23:59:06.780Z,5.56
